createdAt,value
2023-03-05T00:04:29.571Z,65.13
2023-03-05T00:09:51.255Z,65.16
2023-03-05T00:15:13.156Z,65.28
2023-03-05T00:20:35.201Z,65.75
2023-03-05T00:25:57.136Z,65.67
2023-03-05T00:31:24.176Z,65.49
2023-03-05T00:36:49.069Z,65.53
2023-03-05T00:42:10.805Z,65.28
2023-03-05T00:47:32.723Z,65.80
2023-03-05T00:52:54.977Z,65.11
2023-03-05T00:58:16.751Z,65.23
2023-03-05T01:03:38.496Z,65.69
2023-03-05T01:09:00.253Z,65.47
2023-03-05T01:14:22.043Z,66.13
2023-03-05T01:19:43.985Z,65.50
2023-03-05T01:25:06.081Z,65.59
2023-03-05T01:30:27.816Z,66.03
2023-03-05T01:35:50.388Z,67.01
2023-03-05T01:41:14.343Z,66.74
2023-03-05T01:46:38.381Z,66.42
2023-03-05T01:52:07.352Z,66.94
2023-03-05T01:57:34.934Z,66.79
2023-03-05T02:02:58.617Z,66.76
2023-03-05T02:08:22.416Z,66.75
2023-03-05T02:13:44.275Z,68.05
2023-03-05T02:19:09.643Z,68.75
2023-03-05T02:24:37.030Z,69.06
2023-03-05T02:29:58.741Z,68.55
2023-03-05T02:35:20.965Z,68.39
2023-03-05T02:40:42.909Z,69.82
2023-03-05T02:46:05.864Z,69.71
2023-03-05T02:51:28.150Z,69.79
2023-03-05T02:56:50.378Z,68.75
2023-03-05T03:02:13.014Z,69.87
2023-03-05T03:07:36.538Z,70.07
2023-03-05T03:12:58.553Z,70.99
2023-03-05T03:18:20.277Z,71.49
2023-03-05T03:23:42.091Z,71.66
2023-03-05T03:29:03.891Z,71.84
2023-03-05T03:34:26.556Z,73.10
2023-03-05T03:39:48.405Z,73.26
2023-03-05T03:45:10.617Z,73.69
2023-03-05T03:50:32.477Z,73.18
2023-03-05T03:55:58.818Z,73.17
2023-03-05T04:01:21.455Z,72.82
2023-03-05T04:06:43.839Z,72.82
2023-03-05T04:12:05.931Z,73.67
2023-03-05T04:17:27.729Z,72.71
2023-03-05T04:22:49.481Z,73.04
2023-03-05T04:28:11.665Z,72.46
2023-03-05T04:33:33.968Z,72.24
2023-03-05T04:38:55.714Z,72.46
2023-03-05T04:44:17.928Z,71.43
2023-03-05T04:49:39.732Z,71.49
2023-03-05T04:55:01.651Z,71.01
2023-03-05T05:00:23.797Z,71.77
2023-03-05T05:05:45.621Z,72.57
2023-03-05T05:11:08.271Z,72.81
2023-03-05T05:16:30.232Z,72.98
2023-03-05T05:21:52.003Z,72.26
2023-03-05T05:27:13.810Z,71.38
2023-03-05T05:32:35.678Z,71.73
2023-03-05T05:37:57.442Z,71.15
2023-03-05T05:43:19.210Z,71.81
2023-03-05T05:48:41.348Z,72.03
2023-03-05T05:54:03.114Z,71.43
2023-03-05T05:59:25.076Z,71.44
2023-03-05T06:04:46.865Z,71.13
2023-03-05T06:10:10.019Z,70.79
2023-03-05T06:15:31.951Z,71.08
2023-03-05T06:20:58.316Z,70.18
2023-03-05T06:26:22.174Z,70.51
2023-03-05T06:31:43.917Z,70.70
2023-03-05T06:37:05.947Z,70.67
2023-03-05T06:42:27.736Z,70.52
2023-03-05T06:47:49.553Z,70.43
2023-03-05T06:53:11.267Z,71.10
2023-03-05T06:58:33.000Z,70.25
2023-03-05T07:03:58.822Z,69.11
2023-03-05T07:09:20.677Z,69.51
2023-03-05T07:14:42.412Z,70.04
2023-03-05T07:20:04.790Z,69.45
2023-03-05T07:25:26.517Z,70.00
2023-03-05T07:30:59.678Z,69.80
2023-03-05T07:36:21.527Z,69.20
2023-03-05T07:41:43.279Z,68.90
2023-03-05T07:47:05.588Z,69.04
2023-03-05T07:52:27.379Z,69.00
2023-03-05T07:57:49.120Z,69.42
2023-03-05T08:03:10.835Z,69.29
2023-03-05T08:08:33.038Z,68.79
2023-03-05T08:13:54.814Z,68.03
2023-03-05T08:19:16.569Z,67.85
2023-03-05T08:24:38.344Z,67.99
2023-03-05T08:30:02.702Z,68.10
2023-03-05T08:35:24.616Z,67.93
2023-03-05T08:40:46.395Z,67.57
2023-03-05T08:46:08.437Z,67.13
2023-03-05T08:51:30.354Z,66.97
2023-03-05T08:56:52.074Z,66.53
2023-03-05T09:02:14.107Z,67.04
2023-03-05T09:07:37.779Z,66.60
2023-03-05T09:12:59.592Z,66.60
2023-03-05T09:18:21.500Z,66.72
2023-03-05T09:23:44.348Z,65.87
2023-03-05T09:29:07.534Z,64.63
2023-03-05T09:34:29.334Z,65.12
2023-03-05T09:39:51.125Z,64.88
2023-03-05T09:45:17.894Z,65.48
2023-03-05T09:50:44.560Z,65.62
2023-03-05T09:56:28.187Z,65.04
2023-03-05T10:01:52.843Z,65.69
2023-03-05T10:07:38.476Z,64.26
2023-03-05T10:13:05.484Z,63.91
2023-03-05T10:18:38.339Z,63.50
2023-03-05T10:24:25.429Z,63.86
2023-03-05T10:30:08.047Z,63.46
2023-03-05T10:35:44.255Z,63.62
2023-03-05T10:41:36.964Z,63.82
2023-03-05T10:47:00.748Z,63.84
2023-03-05T10:52:34.975Z,62.82
2023-03-05T10:57:56.759Z,63.01
2023-03-05T11:03:18.598Z,63.70
2023-03-05T11:08:40.920Z,63.44
2023-03-05T11:14:03.964Z,63.45
2023-03-05T11:19:33.426Z,63.96
2023-03-05T11:25:18.334Z,64.86
2023-03-05T11:30:40.629Z,64.91
2023-03-05T11:36:43.100Z,65.12
2023-03-05T11:42:11.652Z,64.07
2023-03-05T11:47:44.384Z,63.45
2023-03-05T11:53:12.067Z,63.87
2023-03-05T11:59:04.502Z,64.51
2023-03-05T12:04:26.825Z,63.26
2023-03-05T12:09:53.164Z,62.46
2023-03-05T12:15:17.653Z,62.77
2023-03-05T12:20:51.392Z,63.60
2023-03-05T12:26:13.250Z,61.33
2023-03-05T12:31:38.290Z,58.54
2023-03-05T12:37:00.045Z,59.21
2023-03-05T12:42:27.849Z,59.62
2023-03-05T12:47:55.307Z,60.59
2023-03-05T12:53:20.487Z,60.92
2023-03-05T12:58:51.035Z,60.99
2023-03-05T13:04:34.138Z,61.24
2023-03-05T13:10:02.086Z,61.17
2023-03-05T13:15:25.756Z,60.92
2023-03-05T13:20:52.123Z,61.07
2023-03-05T13:26:19.129Z,60.81
2023-03-05T13:31:54.391Z,61.06
2023-03-05T13:37:22.450Z,60.60
2023-03-05T13:42:44.565Z,60.57
2023-03-05T13:48:10.385Z,60.00
2023-03-05T13:53:33.995Z,60.56
2023-03-05T13:58:56.995Z,60.26
2023-03-05T14:04:23.468Z,59.85
2023-03-05T14:09:48.511Z,59.94
2023-03-05T14:15:31.771Z,60.84
2023-03-05T14:21:10.443Z,60.78
2023-03-05T14:26:38.362Z,61.18
2023-03-05T14:32:06.957Z,61.59
2023-03-05T14:37:42.787Z,62.11
2023-03-05T14:43:10.702Z,62.51
2023-03-05T14:48:32.439Z,62.58
2023-03-05T14:53:55.049Z,62.79
2023-03-05T14:59:18.301Z,62.74
2023-03-05T15:04:40.646Z,63.45
2023-03-05T15:10:02.484Z,63.29
2023-03-05T15:15:24.403Z,63.71
2023-03-05T15:20:48.816Z,64.59
2023-03-05T15:26:14.103Z,64.11
2023-03-05T15:31:38.690Z,64.72
2023-03-05T15:37:02.293Z,64.59
2023-03-05T15:42:24.042Z,64.58
2023-03-05T15:47:48.986Z,64.67
2023-03-05T15:53:13.363Z,63.52
2023-03-05T15:58:35.074Z,64.52
2023-03-05T16:03:56.856Z,64.10
2023-03-05T16:09:20.136Z,64.21
2023-03-05T16:14:42.362Z,64.06
2023-03-05T16:20:04.961Z,63.26
2023-03-05T16:25:26.900Z,62.74
2023-03-05T16:30:56.663Z,62.26
2023-03-05T16:36:24.690Z,61.45
2023-03-05T16:41:46.636Z,61.87
2023-03-05T16:47:11.955Z,61.17
2023-03-05T16:52:33.775Z,61.42
2023-03-05T16:57:55.559Z,61.08
2023-03-05T17:03:17.367Z,60.60
2023-03-05T17:08:39.897Z,60.88
2023-03-05T17:14:03.892Z,60.95
2023-03-05T17:19:25.813Z,61.20
2023-03-05T17:24:48.037Z,60.71
2023-03-05T17:30:10.577Z,60.71
2023-03-05T17:35:32.597Z,61.46
2023-03-05T17:40:54.428Z,61.03
2023-03-05T17:46:16.808Z,62.13
2023-03-05T17:51:38.617Z,61.72
2023-03-05T17:57:00.836Z,61.48
2023-03-05T18:02:22.593Z,62.03
2023-03-05T18:07:44.516Z,62.37
2023-03-05T18:13:06.385Z,62.62
2023-03-05T18:18:29.233Z,63.30
2023-03-05T18:23:51.480Z,64.82
2023-03-05T18:29:13.370Z,64.28
2023-03-05T18:34:35.189Z,64.66
2023-03-05T18:39:57.979Z,64.10
2023-03-05T18:45:22.077Z,65.51
2023-03-05T18:50:44.048Z,65.91
2023-03-05T18:56:06.300Z,65.57
2023-03-05T19:01:28.308Z,64.71
2023-03-05T19:06:50.191Z,66.10
2023-03-05T19:12:11.948Z,65.58
2023-03-05T19:17:33.779Z,66.55
2023-03-05T19:22:55.759Z,65.96
2023-03-05T19:28:17.532Z,65.87
2023-03-05T19:33:39.284Z,67.08
2023-03-05T19:39:04.010Z,66.88
2023-03-05T19:44:26.508Z,67.65
2023-03-05T19:49:48.271Z,67.99
2023-03-05T19:55:10.464Z,67.12
2023-03-05T20:00:32.312Z,66.67
2023-03-05T20:05:54.067Z,66.67
2023-03-05T20:11:16.999Z,66.76
2023-03-05T20:16:39.569Z,66.03
2023-03-05T20:22:01.506Z,66.33
2023-03-05T20:27:24.339Z,65.89
2023-03-05T20:32:46.598Z,65.15
2023-03-05T20:38:20.677Z,65.82
2023-03-05T20:43:45.727Z,64.95
2023-03-05T20:49:08.743Z,64.47
2023-03-05T20:54:30.732Z,64.50
2023-03-05T20:59:52.595Z,63.80
2023-03-05T21:05:14.659Z,64.29
2023-03-05T21:10:37.671Z,63.35
2023-03-05T21:15:59.815Z,63.83
2023-03-05T21:21:21.771Z,64.92
2023-03-05T21:26:43.562Z,65.13
2023-03-05T21:32:05.486Z,64.47
2023-03-05T21:37:27.380Z,64.79
2023-03-05T21:42:49.505Z,64.88
2023-03-05T21:48:11.358Z,63.80
2023-03-05T21:53:33.202Z,64.28
2023-03-05T21:58:54.968Z,63.66
2023-03-05T22:04:16.760Z,64.41
2023-03-05T22:09:39.584Z,64.30
2023-03-05T22:15:01.460Z,63.30
2023-03-05T22:20:23.264Z,64.19
2023-03-05T22:25:45.191Z,64.06
2023-03-05T22:31:07.100Z,63.70
2023-03-05T22:36:29.299Z,63.50
2023-03-05T22:41:51.102Z,63.31
2023-03-05T22:47:12.837Z,63.46
2023-03-05T22:52:34.787Z,63.32
2023-03-05T22:57:56.545Z,63.71
2023-03-05T23:03:18.419Z,63.87
2023-03-05T23:08:40.201Z,63.11
2023-03-05T23:14:01.938Z,63.56
2023-03-05T23:19:23.673Z,63.16
2023-03-05T23:24:45.578Z,63.60
2023-03-05T23:30:19.886Z,63.74
2023-03-05T23:35:49.245Z,63.83
2023-03-05T23:41:11.189Z,62.85
2023-03-05T23:46:33.033Z,62.16
2023-03-05T23:51:54.753Z,62.80
2023-03-05T23:57:16.738Z,61.94
